Time;durP1;ratioP1;P1;durP2;ratioP2;P2;SDS_P1;SDS_P2;PMS_P1;PMS_P2;Temp;Humidity;BMP_temperature;BMP_pressure;BME280_temperature;BME280_humidity;BME280_pressure;Samples;Min_cycle;Max_cycle;Signal;HPM_P1;HPM_P2
2022/03/05 00:00:52;;;;;;;13.03;4.97;;;;;;;-0.31;68.40;99355.97;5134830;27;41768;-75
2022/03/05 00:03:22;;;;;;;16.20;6.73;;;;;;;-0.33;68.64;99349.91;5152966;27;42951;-75
2022/03/05 00:05:50;;;;;;;9.90;4.57;;;;;;;-0.40;69.12;99354.34;5134745;27;41525;-75
2022/03/05 00:08:17;;;;;;;12.90;6.53;;;;;;;-0.34;69.77;99350.78;5116588;27;40925;-75
2022/03/05 00:10:45;;;;;;;10.13;5.30;;;;;;;-0.40;69.56;99346.53;5134802;27;42388;-75
2022/03/05 00:13:13;;;;;;;13.53;6.93;;;;;;;-0.37;69.46;99361.22;5134752;27;43682;-75
2022/03/05 00:15:42;;;;;;;12.50;6.30;;;;;;;-0.40;70.13;99353.47;5134679;27;42669;-75
2022/03/05 00:18:10;;;;;;;12.03;5.77;;;;;;;-0.43;69.62;99345.69;5134688;27;39056;-75
2022/03/05 00:20:39;;;;;;;15.97;6.87;;;;;;;-0.42;69.06;99353.47;5117513;27;42460;-75
2022/03/05 00:23:07;;;;;;;11.90;5.43;;;;;;;-0.44;68.78;99357.81;5134218;27;43384;-75
2022/03/05 00:25:36;;;;;;;14.37;6.10;;;;;;;-0.46;68.36;99356.13;5153380;27;42163;-75
2022/03/05 00:28:05;;;;;;;15.03;5.70;;;;;;;-0.49;68.03;99363.94;5134547;27;38413;-75
2022/03/05 00:30:33;;;;;;;11.20;5.77;;;;;;;-0.52;67.64;99361.41;5134205;27;40317;-75
2022/03/05 00:33:00;;;;;;;12.83;6.33;;;;;;;-0.55;67.31;99366.63;5134047;27;44949;-75
2022/03/05 00:35:29;;;;;;;12.23;5.27;;;;;;;-0.68;67.12;99355.47;5153220;27;42301;-75
2022/03/05 00:37:59;;;;;;;9.93;4.10;;;;;;;-0.62;66.94;99372.78;5117157;27;40055;-75
2022/03/05 00:40:27;;;;;;;18.40;6.20;;;;;;;-0.66;66.57;99369.34;5134589;27;41671;-75
2022/03/05 00:42:54;;;;;;;17.77;6.53;;;;;;;-0.69;66.62;99366.75;5117105;27;42915;-75
2022/03/05 00:45:22;;;;;;;13.27;5.37;;;;;;;-0.72;66.30;99369.38;5169442;27;42531;-75
2022/03/05 00:47:50;;;;;;;11.37;5.23;;;;;;;-0.74;66.46;99371.97;5152777;27;39824;-75
2022/03/05 00:50:18;;;;;;;12.40;4.53;;;;;;;-0.76;66.36;99375.50;5134689;27;42700;-75
2022/03/05 00:52:46;;;;;;;17.90;6.30;;;;;;;-0.77;66.52;99373.78;5133979;27;41919;-75
2022/03/05 00:55:15;;;;;;;10.33;4.43;;;;;;;-0.79;66.63;99365.13;5152789;27;42247;-75
2022/03/05 00:57:43;;;;;;;17.63;6.17;;;;;;;-0.81;66.64;99374.66;5134104;27;40001;-75
2022/03/05 01:00:12;;;;;;;11.73;5.60;;;;;;;-0.84;66.64;99378.16;5134276;27;43591;-75
2022/03/05 01:02:40;;;;;;;10.40;5.00;;;;;;;-0.86;66.52;99374.69;5133845;27;43447;-76
2022/03/05 01:05:09;;;;;;;12.30;4.67;;;;;;;-1.00;66.42;99352.31;5134136;27;42709;-76
2022/03/05 01:07:37;;;;;;;15.67;5.53;;;;;;;-0.97;66.33;99363.53;5117190;27;39984;-75
2022/03/05 01:10:05;;;;;;;12.07;5.63;;;;;;;-0.97;66.39;99367.84;5133753;27;40227;-75
2022/03/05 01:12:34;;;;;;;13.67;6.53;;;;;;;-1.01;66.35;99364.44;5151020;27;41327;-75
2022/03/05 01:15:02;;;;;;;14.70;5.60;;;;;;;-0.99;66.05;99365.25;5133585;27;43232;-75
2022/03/05 01:17:30;;;;;;;15.00;5.60;;;;;;;-1.01;66.09;99372.25;5148140;27;40070;-75
2022/03/05 01:19:58;;;;;;;12.50;5.20;;;;;;;-1.02;66.32;99374.84;5115087;27;43697;-74
2022/03/05 01:22:26;;;;;;;13.07;6.40;;;;;;;-1.13;66.50;99356.75;5099770;27;42647;-76
2022/03/05 01:24:53;;;;;;;11.37;4.90;;;;;;;-1.06;66.09;99378.34;5135395;27;42328;-75
2022/03/05 01:27:22;;;;;;;14.00;6.57;;;;;;;-1.10;66.15;99362.75;5135476;27;39987;-75
2022/03/05 01:29:52;;;;;;;13.90;5.77;;;;;;;-1.11;66.30;99362.75;5099591;27;42895;-75
2022/03/05 01:32:19;;;;;;;15.47;7.13;;;;;;;-1.18;67.10;99350.69;5151370;27;42791;-75
2022/03/05 01:34:47;;;;;;;10.93;5.00;;;;;;;-1.15;67.03;99361.94;5099625;27;42838;-75
2022/03/05 01:37:15;;;;;;;11.23;4.83;;;;;;;-1.15;66.89;99361.09;5135443;27;40610;-75
2022/03/05 01:39:43;;;;;;;13.87;6.13;;;;;;;-1.17;66.46;99365.41;5116775;27;42984;-75
2022/03/05 01:42:10;;;;;;;17.53;6.30;;;;;;;-1.19;66.36;99362.84;5116448;27;41648;-75
2022/03/05 01:44:38;;;;;;;14.97;6.27;;;;;;;-1.20;66.24;99368.91;5098932;27;42209;-75
2022/03/05 01:47:08;;;;;;;14.40;6.63;;;;;;;-1.22;66.33;99359.38;5116818;27;40979;-75
2022/03/05 01:49:36;;;;;;;9.23;4.47;;;;;;;-1.24;66.91;99353.38;5099128;27;43305;-75
2022/03/05 01:52:05;;;;;;;14.57;5.30;;;;;;;-1.26;66.87;99361.16;5116695;27;42730;-75
2022/03/05 01:54:33;;;;;;;14.20;5.13;;;;;;;-1.31;66.96;99352.53;5115473;27;42277;-75
2022/03/05 01:57:01;;;;;;;12.80;5.90;;;;;;;-1.30;66.70;99351.66;5134917;27;40095;-75
2022/03/05 01:59:29;;;;;;;13.17;5.77;;;;;;;-1.54;66.86;99321.53;5099113;27;41661;-75
2022/03/05 02:01:57;;;;;;;10.53;4.60;;;;;;;-1.36;67.14;99343.88;5099158;27;42036;-75
2022/03/05 02:04:26;;;;;;;13.77;6.03;;;;;;;-1.34;67.70;99342.16;5136715;27;43217;-75
2022/03/05 02:06:54;;;;;;;12.87;7.17;;;;;;;-1.36;67.51;99343.88;5116199;27;40319;-75
2022/03/05 02:09:22;;;;;;;11.43;5.30;;;;;;;-1.41;67.64;99337.88;5115933;27;41913;-75
2022/03/05 02:11:50;;;;;;;12.93;5.60;;;;;;;-1.40;67.70;99337.00;5116262;27;42789;-75
2022/03/05 02:14:18;;;;;;;14.30;6.03;;;;;;;-1.38;67.44;99344.81;5116210;27;42403;-75
2022/03/05 02:16:48;;;;;;;11.20;5.60;;;;;;;-1.43;67.81;99331.84;5116441;27;40138;-75
2022/03/05 02:19:17;;;;;;;11.80;5.67;;;;;;;-1.39;69.19;99332.69;5098800;27;43145;-75
2022/03/05 02:21:47;;;;;;;14.00;6.30;;;;;;;-1.39;69.38;99332.69;5150537;27;42727;-75
2022/03/05 02:24:31;;;;;;;13.03;5.53;;;;;;;-1.41;68.93;99335.28;5134302;27;41849;-75
2022/03/05 02:26:59;;;;;;;12.10;5.83;;;;;;;-1.41;69.29;99339.63;5116027;27;38943;-75
2022/03/05 02:29:27;;;;;;;12.30;5.53;;;;;;;-1.41;69.03;99339.63;5115974;27;41592;-75
2022/03/05 02:31:55;;;;;;;14.27;6.73;;;;;;;-1.43;68.67;99342.22;5115080;27;41657;-75
2022/03/05 02:34:23;;;;;;;15.50;6.70;;;;;;;-1.48;68.86;99334.44;5133949;27;43070;-75
2022/03/05 02:36:52;;;;;;;12.60;5.50;;;;;;;-1.50;69.27;99332.75;5115991;27;40941;-75
2022/03/05 02:39:24;;;;;;;17.93;6.63;;;;;;;-1.49;69.46;99337.09;5115681;27;41724;-75
2022/03/05 02:41:51;;;;;;;10.00;5.90;;;;;;;-1.49;69.71;99342.28;5129923;27;43669;-75
2022/03/05 02:44:19;;;;;;;12.97;5.47;;;;;;;-1.51;70.39;99338.81;5132663;27;43119;-75
2022/03/05 02:46:48;;;;;;;15.37;5.73;;;;;;;-1.53;69.87;99336.22;5115837;27;38898;-75
2022/03/05 02:49:15;;;;;;;9.83;4.97;;;;;;;-1.54;70.21;99336.25;5132719;27;41758;-75
2022/03/05 02:51:43;;;;;;;12.47;6.50;;;;;;;-1.55;70.57;99332.78;5115742;27;43683;-75
2022/03/05 02:54:13;;;;;;;13.30;6.90;;;;;;;-1.58;71.45;99331.91;5132363;27;42311;-75
2022/03/05 02:56:40;;;;;;;13.03;6.93;;;;;;;-1.57;70.89;99333.66;5115516;27;39654;-75
2022/03/05 02:59:08;;;;;;;11.13;6.20;;;;;;;-1.60;70.58;99341.44;5114401;27;40702;-74
2022/03/05 03:01:36;;;;;;;16.40;6.57;;;;;;;-1.63;70.61;99329.38;5132390;27;41407;-76
2022/03/05 03:04:04;;;;;;;12.23;5.27;;;;;;;-1.74;70.27;99314.75;5131758;27;43592;-75
2022/03/05 03:06:33;;;;;;;13.03;6.47;;;;;;;-1.65;70.72;99332.84;5133853;27;40777;-75
2022/03/05 03:09:01;;;;;;;13.97;5.20;;;;;;;-1.72;70.50;99331.13;5097977;27;40281;-75
2022/03/05 03:11:30;;;;;;;12.73;6.07;;;;;;;-1.69;69.79;99344.09;5149773;27;42714;-75
2022/03/05 03:13:58;;;;;;;13.50;5.93;;;;;;;-1.72;69.97;99341.53;5120938;27;42518;-75
2022/03/05 03:16:25;;;;;;;13.13;6.10;;;;;;;-1.74;69.58;99338.97;5153016;27;39971;-75
2022/03/05 03:18:53;;;;;;;15.00;6.07;;;;;;;-1.76;69.33;99342.44;5135636;27;40800;-75
2022/03/05 03:21:21;;;;;;;15.73;6.20;;;;;;;-1.78;69.90;99344.16;5135623;27;44030;-75
2022/03/05 03:23:48;;;;;;;14.23;6.53;;;;;;;-1.80;69.99;99331.19;5153665;27;42258;-75
2022/03/05 03:26:16;;;;;;;10.47;5.63;;;;;;;-1.82;69.57;99344.19;5118506;27;41035;-74
2022/03/05 03:28:45;;;;;;;9.77;5.00;;;;;;;-1.83;69.27;99346.78;5118003;27;41841;-75
2022/03/05 03:31:12;;;;;;;18.97;6.63;;;;;;;-1.85;69.17;99351.09;5118298;27;41693;-75
2022/03/05 03:33:40;;;;;;;13.77;5.43;;;;;;;-1.87;69.52;99350.28;5135188;27;42799;-75
2022/03/05 03:36:08;;;;;;;12.03;5.37;;;;;;;-1.88;69.56;99344.22;5154248;27;39973;-75
2022/03/05 03:38:36;;;;;;;10.63;4.73;;;;;;;-1.88;70.01;99340.75;5117908;27;42512;-75
2022/03/05 03:41:03;;;;;;;16.57;8.03;;;;;;;-1.89;71.00;99339.03;5135391;27;42763;-75
2022/03/05 03:43:31;;;;;;;15.30;7.03;;;;;;;-1.99;71.13;99320.06;5134075;27;42528;-75
2022/03/05 03:46:00;;;;;;;12.43;5.63;;;;;;;-1.91;72.18;99333.84;5118181;27;40245;-75
2022/03/05 03:48:28;;;;;;;10.83;5.80;;;;;;;-1.92;71.75;99332.13;5134879;27;40348;-75
2022/03/05 03:50:56;;;;;;;15.60;6.13;;;;;;;-1.90;71.41;99334.72;5135462;27;43844;-75
2022/03/05 03:53:24;;;;;;;16.00;8.27;;;;;;;-1.98;72.54;99321.75;5135086;27;42060;-75
2022/03/05 03:55:52;;;;;;;11.67;7.43;;;;;;;-1.90;71.88;99348.56;5113354;27;39589;-75
2022/03/05 03:58:20;;;;;;;14.70;5.17;;;;;;;-1.97;71.55;99335.59;5153659;27;41819;-75
2022/03/05 04:00:48;;;;;;;12.57;6.97;;;;;;;-1.91;71.36;99353.75;5135253;27;43714;-75
2022/03/05 04:03:17;;;;;;;14.17;6.57;;;;;;;-1.98;71.01;99342.53;5117173;27;41755;-75
2022/03/05 04:05:45;;;;;;;14.30;5.87;;;;;;;-1.94;70.76;99359.81;5135234;27;40153;-75
2022/03/05 04:10:58;;;;;;;16.33;7.23;;;;;;;-1.98;70.78;99352.91;5150448;27;43680;-76
2022/03/05 04:13:25;;;;;;;15.67;5.90;;;;;;;-1.98;70.92;99352.06;5134698;27;43434;-75
2022/03/05 04:15:54;;;;;;;13.53;7.47;;;;;;;-1.99;70.90;99356.41;5117607;27;41225;-76
2022/03/05 04:18:23;;;;;;;11.57;5.07;;;;;;;-2.00;71.28;99354.66;5117561;27;40622;-76
2022/03/05 04:20:50;;;;;;;13.77;5.87;;;;;;;-2.04;71.14;99352.94;5153348;27;42773;-75
2022/03/05 04:23:18;;;;;;;14.10;7.20;;;;;;;-1.98;71.33;99352.91;5153067;27;42024;-75
2022/03/05 04:25:46;;;;;;;16.43;6.80;;;;;;;-2.07;71.79;99336.50;5117902;27;39981;-75
2022/03/05 04:28:14;;;;;;;17.10;7.50;;;;;;;-1.97;72.64;99339.06;5117189;27;42855;-75
2022/03/05 04:30:42;;;;;;;17.40;8.10;;;;;;;-1.97;72.84;99344.25;5134772;27;42799;-75
2022/03/05 04:33:10;;;;;;;16.23;7.47;;;;;;;-1.97;72.86;99349.44;5117211;27;42196;-75
2022/03/05 04:35:39;;;;;;;13.67;7.80;;;;;;;-1.95;72.80;99354.63;5117640;27;41320;-75
2022/03/05 04:38:07;;;;;;;11.97;5.47;;;;;;;-1.93;72.64;99350.28;5116849;27;43759;-75
2022/03/05 04:40:35;;;;;;;15.23;6.73;;;;;;;-1.96;72.95;99345.97;5117244;27;44264;-75
2022/03/05 04:43:04;;;;;;;13.73;6.57;;;;;;;-1.94;72.92;99349.44;5134245;27;42303;-76
2022/03/05 04:45:31;;;;;;;17.37;6.63;;;;;;;-1.99;73.02;99340.81;5134753;27;40799;-75
2022/03/05 04:47:59;;;;;;;20.40;7.73;;;;;;;-1.95;72.51;99357.22;5134478;27;40712;-75
2022/03/05 04:50:26;;;;;;;15.90;6.87;;;;;;;-2.07;72.67;99342.56;5153151;27;42590;-75
2022/03/05 04:52:55;;;;;;;15.33;6.37;;;;;;;-1.94;73.12;99359.81;5116568;27;42370;-75
2022/03/05 04:55:23;;;;;;;11.93;7.13;;;;;;;-1.92;73.58;99363.28;5119366;27;41442;-75
2022/03/05 04:57:51;;;;;;;12.77;6.83;;;;;;;-1.93;74.35;99353.75;5156354;27;42702;-75
2022/03/05 05:00:19;;;;;;;15.23;6.03;;;;;;;-1.90;74.15;99366.72;5155269;27;41733;-75
2022/03/05 05:02:46;;;;;;;13.03;7.17;;;;;;;-1.99;74.41;99350.34;5119789;27;44091;-75
2022/03/05 05:05:14;;;;;;;9.17;5.63;;;;;;;-1.92;74.66;99365.00;5134310;27;41878;-75
2022/03/05 05:07:42;;;;;;;15.80;6.63;;;;;;;-1.83;73.87;99373.59;5134166;27;41668;-75
2022/03/05 05:10:11;;;;;;;11.83;6.33;;;;;;;-1.82;73.85;99383.13;5135746;27;43737;-76
2022/03/05 05:12:39;;;;;;;13.87;6.47;;;;;;;-1.77;73.66;99387.44;5151578;27;44159;-76
2022/03/05 05:15:07;;;;;;;17.67;6.73;;;;;;;-1.89;73.73;99362.41;5117062;27;39232;-75
2022/03/05 05:17:36;;;;;;;10.83;5.47;;;;;;;-1.71;73.96;99382.19;5133973;27;41682;-76
2022/03/05 05:20:06;;;;;;;17.33;7.57;;;;;;;-1.67;73.77;99394.31;5135662;27;42828;-76
2022/03/05 05:22:34;;;;;;;16.67;6.37;;;;;;;-1.83;74.28;99365.81;5134231;27;42429;-75
2022/03/05 05:25:04;;;;;;;17.23;7.57;;;;;;;-1.61;74.19;99391.69;5134526;27;39202;-77
2022/03/05 05:27:37;;;;;;;17.83;7.50;;;;;;;-1.58;74.15;99400.31;5135698;27;41735;-76
2022/03/05 05:30:06;;;;;;;14.13;7.63;;;;;;;-1.56;73.85;99398.56;5132343;27;43698;-75
2022/03/05 05:32:34;;;;;;;20.83;6.33;;;;;;;-1.58;73.16;99391.66;5099503;27;42252;-75
2022/03/05 05:35:01;;;;;;;12.93;7.07;;;;;;;-1.51;72.84;99401.16;5117000;27;39016;-75
2022/03/05 05:37:29;;;;;;;13.07;6.20;;;;;;;-1.51;72.56;99402.03;5133977;27;41636;-75
2022/03/05 05:39:57;;;;;;;15.17;7.57;;;;;;;-1.61;72.20;99383.91;5133918;27;44541;-75
2022/03/05 05:42:24;;;;;;;13.30;6.40;;;;;;;-1.47;72.29;99408.03;5116523;27;41086;-75
2022/03/05 05:44:53;;;;;;;14.67;8.17;;;;;;;-1.47;71.80;99413.22;5116382;27;40207;-75
2022/03/05 05:47:21;;;;;;;15.80;6.70;;;;;;;-1.44;71.92;99413.22;5116596;27;40664;-75
2022/03/05 05:49:49;;;;;;;16.20;6.73;;;;;;;-1.45;71.78;99416.69;5133533;27;42487;-75
2022/03/05 05:52:18;;;;;;;14.43;6.70;;;;;;;-1.44;71.89;99410.63;5134942;27;42281;-75
2022/03/05 05:54:46;;;;;;;9.67;4.97;;;;;;;-1.43;71.67;99414.94;5116132;27;40536;-75
2022/03/05 05:57:13;;;;;;;16.33;6.60;;;;;;;-1.45;71.84;99427.94;5132311;27;42055;-74
2022/03/05 05:59:41;;;;;;;12.43;6.47;;;;;;;-1.44;71.38;99431.41;5155462;27;43522;-75
2022/03/05 06:02:10;;;;;;;13.40;6.97;;;;;;;-1.46;71.43;99431.41;5137155;27;43165;-76
2022/03/05 06:04:38;;;;;;;9.63;5.27;;;;;;;-1.47;71.07;99424.47;5119300;27;40525;-75
2022/03/05 06:07:05;;;;;;;10.23;6.40;;;;;;;-1.46;71.08;99430.53;5154512;27;41648;-75
2022/03/05 06:09:33;;;;;;;11.77;5.37;;;;;;;-1.48;70.75;99432.28;5136812;27;43788;-75
2022/03/05 06:12:01;;;;;;;13.20;6.37;;;;;;;-1.50;70.77;99434.06;5136908;27;42086;-75
2022/03/05 06:14:28;;;;;;;12.43;5.77;;;;;;;-1.52;70.59;99433.19;5119420;27;38756;-75
2022/03/05 06:16:56;;;;;;;14.73;6.23;;;;;;;-1.58;70.93;99425.41;5136459;27;41860;-76
2022/03/05 06:19:25;;;;;;;12.80;6.47;;;;;;;-1.56;70.95;99439.25;5119442;27;41353;-75
2022/03/05 06:21:53;;;;;;;11.27;5.97;;;;;;;-1.69;71.03;99411.63;5119513;27;40271;-75
2022/03/05 06:24:21;;;;;;;15.43;6.87;;;;;;;-1.59;70.73;99440.13;5119082;27;39327;-75
2022/03/05 06:26:49;;;;;;;12.97;5.37;;;;;;;-1.48;70.80;99445.28;5119421;27;41775;-75
2022/03/05 06:29:17;;;;;;;17.37;7.27;;;;;;;-1.52;70.80;99420.19;5136378;27;41188;-75
2022/03/05 06:31:45;;;;;;;13.03;7.43;;;;;;;-1.30;70.34;99450.38;5155020;27;43072;-76
2022/03/05 06:34:12;;;;;;;11.97;6.67;;;;;;;-1.19;70.56;99452.91;5119220;27;40841;-75
2022/03/05 06:36:41;;;;;;;13.07;6.50;;;;;;;-1.08;70.40;99457.16;5119175;27;42093;-75
2022/03/05 06:39:09;;;;;;;15.27;6.20;;;;;;;-0.97;70.14;99456.22;5118846;27;42049;-75
2022/03/05 06:41:37;;;;;;;11.67;5.90;;;;;;;-0.88;70.03;99446.66;5118928;27;41238;-76
2022/03/05 06:44:06;;;;;;;14.37;6.60;;;;;;;-0.97;70.07;99422.44;5153316;27;41588;-75
2022/03/05 06:46:34;;;;;;;14.70;6.77;;;;;;;-0.69;69.79;99456.91;5119026;27;41721;-75
2022/03/05 06:49:02;;;;;;;17.17;7.70;;;;;;;-0.58;69.95;99461.16;5136084;27;44401;-75
2022/03/05 06:51:30;;;;;;;13.33;6.40;;;;;;;-0.47;69.93;99463.66;5154891;27;42179;-75
2022/03/05 06:53:59;;;;;;;14.13;6.97;;;;;;;-0.38;69.63;99464.47;5136127;27;40240;-75
2022/03/05 06:56:26;;;;;;;16.80;8.40;;;;;;;-0.24;69.66;99464.31;5118939;27;42358;-75
2022/03/05 06:58:54;;;;;;;12.70;6.83;;;;;;;-0.11;69.38;99457.25;5153722;27;42784;-76
2022/03/05 07:01:22;;;;;;;14.20;6.90;;;;;;;0.04;69.48;99462.31;5118712;27;40694;-75
2022/03/05 07:03:50;;;;;;;12.13;6.27;;;;;;;0.18;69.06;99463.03;5154196;27;40951;-75
2022/03/05 07:06:17;;;;;;;13.63;6.53;;;;;;;0.35;69.57;99458.50;5118395;27;41082;-75
2022/03/05 07:08:45;;;;;;;16.80;7.23;;;;;;;0.53;69.14;99461.72;5153631;27;42816;-75
2022/03/05 07:11:14;;;;;;;21.33;7.60;;;;;;;0.75;68.88;99462.31;5118661;27;42197;-75
2022/03/05 07:13:42;;;;;;;16.77;6.77;;;;;;;0.97;68.55;99471.59;5154486;27;40955;-76
2022/03/05 07:16:09;;;;;;;13.33;6.73;;;;;;;1.28;68.10;99469.38;5118743;27;42616;-76
2022/03/05 07:18:37;;;;;;;14.27;6.93;;;;;;;1.57;67.47;99464.56;5154025;27;43861;-76
2022/03/05 07:21:05;;;;;;;15.93;6.87;;;;;;;1.78;66.89;99468.56;5118641;27;42558;-75
2022/03/05 07:23:32;;;;;;;16.03;8.17;;;;;;;1.94;66.42;99472.63;5135620;27;41339;-75
2022/03/05 07:26:00;;;;;;;13.00;6.77;;;;;;;2.08;65.90;99475.84;5135814;27;41747;-75
2022/03/05 07:28:29;;;;;;;13.00;6.83;;;;;;;2.34;65.39;99477.97;5118364;27;41629;-75
2022/03/05 07:30:57;;;;;;;13.60;6.93;;;;;;;2.47;64.89;99457.69;5153953;27;42467;-76
2022/03/05 07:33:26;;;;;;;13.90;6.03;;;;;;;3.36;64.17;99483.59;5154025;27;40938;-76
2022/03/05 07:35:53;;;;;;;14.70;6.33;;;;;;;3.65;62.79;99492.53;5135535;27;40988;-76
2022/03/05 07:38:22;;;;;;;14.50;6.80;;;;;;;3.78;61.87;99505.28;5117915;27;44133;-76
2022/03/05 07:40:49;;;;;;;12.60;7.10;;;;;;;4.19;61.26;99492.91;5135169;27;42506;-75
2022/03/05 07:43:17;;;;;;;13.77;6.73;;;;;;;4.75;60.10;99506.19;5118150;27;38855;-76
2022/03/05 07:45:46;;;;;;;14.77;7.47;;;;;;;5.19;58.86;99515.41;5135493;27;41671;-76
2022/03/05 07:48:14;;;;;;;14.97;7.43;;;;;;;5.50;57.46;99520.56;5135166;27;43554;-76
2022/03/05 07:50:44;;;;;;;16.00;7.37;;;;;;;6.00;56.78;99516.34;5118036;27;41466;-76
2022/03/05 07:53:11;;;;;;;13.90;7.33;;;;;;;6.69;55.41;99501.63;5117445;27;41764;-76
2022/03/05 07:55:39;;;;;;;14.60;7.57;;;;;;;6.88;54.69;99533.41;5134218;27;41737;-76
2022/03/05 07:58:08;;;;;;;15.37;8.03;;;;;;;6.78;54.03;99539.03;5117737;27;41936;-76
2022/03/05 08:00:35;;;;;;;10.93;6.27;;;;;;;6.68;54.05;99529.72;5152252;27;43937;-76
2022/03/05 08:03:05;;;;;;;12.53;7.10;;;;;;;6.54;53.57;99545.16;5138082;27;40095;-76
2022/03/05 08:05:32;;;;;;;11.87;7.17;;;;;;;6.88;53.13;99543.94;5114445;27;41087;-76
2022/03/05 08:08:00;;;;;;;14.07;7.40;;;;;;;7.19;52.00;99549.78;5114021;27;41849;-74
2022/03/05 08:10:28;;;;;;;16.87;7.47;;;;;;;7.19;51.91;99547.13;5114319;27;42697;-74
2022/03/05 08:12:56;;;;;;;12.50;7.07;;;;;;;7.59;51.63;99549.09;5114241;27;40971;-74
2022/03/05 08:15:23;;;;;;;12.97;6.27;;;;;;;8.36;49.57;99562.72;5114493;27;40263;-74
2022/03/05 08:17:53;;;;;;;11.93;5.83;;;;;;;8.50;49.12;99565.63;5096747;27;43257;-74
2022/03/05 08:20:23;;;;;;;11.97;6.67;;;;;;;9.20;48.58;99551.94;5132448;27;42221;-74
2022/03/05 08:22:51;;;;;;;10.30;6.53;;;;;;;11.48;45.68;99577.50;5131078;27;40103;-74
2022/03/05 08:25:18;;;;;;;9.93;6.53;;;;;;;14.06;41.06;99597.50;5113980;27;43262;-74
2022/03/05 08:27:47;;;;;;;9.57;7.30;;;;;;;15.06;37.37;99617.41;5132290;27;42828;-75
2022/03/05 08:30:15;;;;;;;9.80;6.63;;;;;;;15.48;36.65;99616.22;5131783;27;42222;-74
2022/03/05 08:32:45;;;;;;;10.93;7.27;;;;;;;15.48;36.56;99613.56;5113965;27;38836;-74
2022/03/05 08:35:13;;;;;;;10.07;6.93;;;;;;;16.44;35.21;99628.00;5096906;27;42566;-74
2022/03/05 08:37:43;;;;;;;10.23;7.57;;;;;;;16.19;34.38;99620.94;5132102;27;43673;-74
2022/03/05 08:40:13;;;;;;;11.67;7.63;;;;;;;16.46;33.50;99620.69;5131122;27;42267;-74
2022/03/05 08:42:41;;;;;;;12.13;8.17;;;;;;;17.01;33.22;99632.59;5113582;27;40979;-74
2022/03/05 08:45:10;;;;;;;11.33;8.13;;;;;;;18.19;30.78;99633.03;5113911;27;42482;-75
2022/03/05 08:47:38;;;;;;;10.67;7.53;;;;;;;18.62;29.38;99647.34;5130765;27;43650;-75
2022/03/05 08:50:07;;;;;;;9.83;7.20;;;;;;;18.58;29.95;99620.91;5096878;27;40741;-75
2022/03/05 08:52:37;;;;;;;9.17;7.47;;;;;;;19.35;29.36;99637.59;5132031;27;39938;-75
2022/03/05 08:55:09;;;;;;;9.80;7.40;;;;;;;19.91;28.43;99640.69;5132224;27;41914;-75
2022/03/05 08:57:37;;;;;;;9.73;6.93;;;;;;;20.19;27.81;99627.50;5128774;27;42476;-75
2022/03/05 09:00:07;;;;;;;11.33;8.30;;;;;;;21.58;25.50;99651.34;5147300;27;42009;-75
2022/03/05 09:02:35;;;;;;;10.60;8.00;;;;;;;22.85;24.32;99653.25;5113478;27;39949;-75
2022/03/05 09:05:04;;;;;;;10.53;8.20;;;;;;;23.36;23.08;99659.78;5096541;27;41739;-75
2022/03/05 09:07:32;;;;;;;11.00;8.13;;;;;;;22.35;23.73;99652.88;5131687;27;42786;-75
2022/03/05 09:10:00;;;;;;;11.67;8.17;;;;;;;21.05;24.77;99632.09;5113201;27;41937;-75
2022/03/05 09:12:29;;;;;;;9.73;7.63;;;;;;;20.05;26.12;99623.34;5132097;27;40914;-74
2022/03/05 09:14:57;;;;;;;9.67;7.47;;;;;;;20.36;25.93;99614.25;5129587;27;40255;-75
2022/03/05 09:17:25;;;;;;;11.17;7.80;;;;;;;21.98;24.30;99642.09;5134135;27;41748;-75
2022/03/05 09:19:59;;;;;;;9.97;7.83;;;;;;;22.61;22.35;99651.13;5117124;27;41370;-74
2022/03/05 09:22:26;;;;;;;10.07;7.30;;;;;;;21.70;23.15;99642.06;5133908;27;38826;-75
2022/03/05 09:24:54;;;;;;;10.43;7.93;;;;;;;20.47;24.25;99636.63;5134148;27;41553;-75
2022/03/05 09:27:22;;;;;;;10.10;8.10;;;;;;;19.74;25.57;99630.59;5152546;27;42675;-75
2022/03/05 09:29:51;;;;;;;10.33;7.80;;;;;;;19.68;25.24;99621.22;5116331;27;44057;-75
2022/03/05 09:32:19;;;;;;;9.63;7.77;;;;;;;20.02;25.24;99629.88;5134084;27;39825;-75
2022/03/05 09:34:46;;;;;;;10.83;7.97;;;;;;;20.67;24.57;99635.66;5133233;27;41015;-75
2022/03/05 09:37:14;;;;;;;10.63;8.10;;;;;;;20.65;24.53;99634.94;5152489;27;43131;-74
2022/03/05 09:39:42;;;;;;;9.00;7.47;;;;;;;21.49;23.70;99641.44;5133796;27;41956;-75
2022/03/05 09:42:09;;;;;;;8.77;7.40;;;;;;;22.90;22.70;99642.81;5136492;27;41006;-75
2022/03/05 09:44:38;;;;;;;10.73;9.10;;;;;;;22.46;22.06;99648.09;5155972;27;41782;-75
2022/03/05 09:47:10;;;;;;;9.80;8.07;;;;;;;21.32;23.70;99647.56;5119888;27;41470;-75
2022/03/05 09:49:39;;;;;;;11.10;7.90;;;;;;;20.62;24.63;99630.72;5137320;27;41083;-75
2022/03/05 09:52:08;;;;;;;10.10;7.30;;;;;;;21.39;23.98;99625.25;5137198;27;39811;-76
2022/03/05 09:54:36;;;;;;;12.27;8.33;;;;;;;21.64;23.77;99626.47;5133093;27;42704;-75
2022/03/05 09:57:10;;;;;;;9.50;7.40;;;;;;;21.51;23.08;99628.66;5155679;27;43492;-75
2022/03/05 09:59:38;;;;;;;10.30;7.70;;;;;;;20.46;24.52;99613.41;5135450;27;42316;-75
2022/03/05 10:02:07;;;;;;;11.33;7.10;;;;;;;19.89;24.42;99617.66;5119782;27;42176;-75
2022/03/05 10:04:35;;;;;;;10.10;7.73;;;;;;;19.88;25.12;99578.31;5119258;27;42534;-76
2022/03/05 10:07:07;;;;;;;9.53;7.40;;;;;;;20.67;24.50;99623.06;5137004;27;43783;-75
2022/03/05 10:09:35;;;;;;;9.80;7.17;;;;;;;21.22;23.58;99607.19;5154917;27;43176;-75
2022/03/05 10:12:23;;;;;;;10.73;7.90;;;;;;;21.28;23.91;99595.81;5136899;27;39928;-75
2022/03/05 10:15:05;;;;;;;9.53;7.00;;;;;;;21.14;24.26;99604.34;5155320;27;42671;-75
2022/03/05 10:17:51;;;;;;;10.27;7.53;;;;;;;20.82;24.31;99603.78;5153880;27;41399;-75
2022/03/05 10:20:20;;;;;;;10.33;8.17;;;;;;;20.14;24.71;99602.88;5152278;27;42097;-76
2022/03/05 10:22:59;;;;;;;11.03;8.03;;;;;;;20.63;24.73;99604.66;5134031;27;39507;-75
2022/03/05 10:25:32;;;;;;;10.27;7.43;;;;;;;21.85;23.12;99613.63;5119342;27;42431;-75
2022/03/05 10:28:06;;;;;;;11.83;8.23;;;;;;;22.67;22.57;99617.25;5136055;27;42780;-75
2022/03/05 10:30:36;;;;;;;12.30;8.23;;;;;;;23.46;21.42;99615.41;5136569;27;42401;-75
2022/03/05 10:33:06;;;;;;;9.23;7.53;;;;;;;24.76;19.99;99624.03;5171305;27;40924;-75
2022/03/05 10:35:35;;;;;;;10.07;8.07;;;;;;;25.36;19.25;99632.72;5168244;27;42340;-75
2022/03/05 10:38:03;;;;;;;11.73;8.40;;;;;;;25.49;18.84;99634.03;5118945;27;41658;-76
2022/03/05 10:40:34;;;;;;;10.13;8.17;;;;;;;25.62;18.94;99618.97;5136212;27;44696;-75
2022/03/05 10:43:05;;;;;;;10.27;8.00;;;;;;;25.27;18.96;99625.59;5119000;27;38941;-76
2022/03/05 10:45:52;;;;;;;11.00;8.90;;;;;;;25.47;18.94;99617.94;5168158;27;41731;-76
2022/03/05 10:48:29;;;;;;;10.93;7.53;;;;;;;25.46;18.85;99620.84;5154535;27;43745;-75
2022/03/05 10:51:00;;;;;;;9.07;7.37;;;;;;;26.29;18.05;99621.28;5136047;27;42244;-75
2022/03/05 10:53:45;;;;;;;9.27;7.10;;;;;;;26.95;18.15;99603.56;5134658;27;40556;-76
2022/03/05 10:56:36;;;;;;;7.90;7.10;;;;;;;28.09;16.41;99617.69;5132941;27;41383;-76
2022/03/05 10:59:10;;;;;;;9.97;7.97;;;;;;;29.17;15.68;99622.28;5120711;27;43056;-76
2022/03/05 11:01:42;;;;;;;8.60;7.20;;;;;;;29.48;15.19;99625.50;5118853;27;41672;-76
2022/03/05 11:04:12;;;;;;;8.90;7.77;;;;;;;29.85;15.05;99620.69;5118251;27;39707;-76
2022/03/05 11:06:42;;;;;;;8.07;7.27;;;;;;;30.20;14.68;99607.84;5119124;27;40664;-76
2022/03/05 11:09:11;;;;;;;8.47;7.03;;;;;;;30.51;15.14;99605.47;5170395;27;42683;-76
2022/03/05 11:11:41;;;;;;;8.17;7.23;;;;;;;30.82;15.00;99583.03;5135353;27;43165;-76
2022/03/05 11:14:14;;;;;;;8.50;7.57;;;;;;;31.72;14.36;99603.47;5135589;27;41631;-76
2022/03/05 11:16:42;;;;;;;7.55;6.85;;;;;;;32.71;13.57;99611.31;5151182;27;41564;-76
2022/03/05 11:19:12;;;;;;;8.93;7.40;;;;;;;33.13;14.17;99580.44;5135450;27;43436;-76
2022/03/05 11:21:40;;;;;;;7.73;7.03;;;;;;;33.23;12.94;99606.53;5154462;27;42337;-76
2022/03/05 11:24:08;;;;;;;8.43;7.50;;;;;;;32.71;13.62;99597.59;5118556;27;40045;-75
2022/03/05 11:26:37;;;;;;;7.57;6.85;;;;;;;33.34;12.30;99605.81;5135875;27;41783;-77
2022/03/05 11:29:05;;;;;;;7.13;6.15;;;;;;;33.33;12.81;99590.41;5153856;27;43881;-76
2022/03/05 11:31:34;;;;;;;7.27;6.57;;;;;;;31.88;13.39;99591.22;5118249;27;42035;-76
2022/03/05 11:34:13;;;;;;;6.97;6.30;;;;;;;29.96;14.10;99576.44;5153930;27;40957;-75
2022/03/05 11:36:43;;;;;;;7.60;6.43;;;;;;;28.01;15.02;99566.03;5151014;27;42929;-76